sensor_id;sensor_type;location;lat;lon;timestamp;P1;durP1;ratioP1;P2;durP2;ratioP2
59336;SDS011;45115;52.002;4.686;2024-02-28T07:47:34;27.55;;;16.55;;
59336;SDS011;45115;52.002;4.686;2024-02-28T07:50:01;25.77;;;16.73;;
59336;SDS011;45115;52.002;4.686;2024-02-28T07:52:28;26.88;;;16.70;;
59336;SDS011;45115;52.002;4.686;2024-02-28T07:54:55;25.33;;;16.15;;
59336;SDS011;45115;52.002;4.686;2024-02-28T07:57:22;27.65;;;16.42;;
59336;SDS011;45115;52.002;4.686;2024-02-28T07:59:48;26.40;;;16.45;;
59336;SDS011;45115;52.002;4.686;2024-02-28T08:02:16;32.33;;;16.95;;
59336;SDS011;45115;52.002;4.686;2024-02-28T08:04:46;26.15;;;16.25;;
59336;SDS011;45115;52.002;4.686;2024-02-28T08:07:14;27.20;;;16.63;;
59336;SDS011;45115;52.002;4.686;2024-02-28T08:09:41;25.02;;;15.57;;
59336;SDS011;45115;52.002;4.686;2024-02-28T08:12:08;25.52;;;15.93;;
59336;SDS011;45115;52.002;4.686;2024-02-28T08:14:35;25.17;;;16.02;;
59336;SDS011;45115;52.002;4.686;2024-02-28T08:17:01;26.40;;;16.02;;
59336;SDS011;45115;52.002;4.686;2024-02-28T08:19:28;27.42;;;14.68;;
59336;SDS011;45115;52.002;4.686;2024-02-28T08:21:56;24.35;;;15.23;;
59336;SDS011;45115;52.002;4.686;2024-02-28T08:24:23;23.75;;;15.05;;
59336;SDS011;45115;52.002;4.686;2024-02-28T08:26:50;24.50;;;15.02;;
59336;SDS011;45115;52.002;4.686;2024-02-28T08:29:17;23.38;;;14.73;;
59336;SDS011;45115;52.002;4.686;2024-02-28T08:31:44;25.20;;;15.32;;
59336;SDS011;45115;52.002;4.686;2024-02-28T08:34:11;22.75;;;14.60;;
59336;SDS011;45115;52.002;4.686;2024-02-28T08:36:37;29.65;;;15.13;;
59336;SDS011;45115;52.002;4.686;2024-02-28T08:39:05;24.13;;;15.13;;
59336;SDS011;45115;52.002;4.686;2024-02-28T08:41:34;23.27;;;14.90;;
59336;SDS011;45115;52.002;4.686;2024-02-28T08:44:01;26.20;;;16.15;;
59336;SDS011;45115;52.002;4.686;2024-02-28T08:46:27;23.52;;;14.23;;
59336;SDS011;45115;52.002;4.686;2024-02-28T08:48:54;25.67;;;15.70;;
59336;SDS011;45115;52.002;4.686;2024-02-28T08:51:21;23.85;;;14.40;;
59336;SDS011;45115;52.002;4.686;2024-02-28T08:53:48;24.63;;;14.50;;
59336;SDS011;45115;52.002;4.686;2024-02-28T08:56:16;23.33;;;14.02;;
59336;SDS011;45115;52.002;4.686;2024-02-28T08:58:43;24.15;;;14.63;;
59336;SDS011;45115;52.002;4.686;2024-02-28T09:01:13;25.90;;;14.90;;
59336;SDS011;45115;52.002;4.686;2024-02-28T09:03:40;25.63;;;15.48;;
59336;SDS011;45115;52.002;4.686;2024-02-28T09:06:07;27.17;;;14.52;;
59336;SDS011;45115;52.002;4.686;2024-02-28T09:08:33;27.38;;;15.57;;
59336;SDS011;45115;52.002;4.686;2024-02-28T09:11:00;24.08;;;15.05;;
59336;SDS011;45115;52.002;4.686;2024-02-28T09:13:28;24.60;;;15.40;;
59336;SDS011;45115;52.002;4.686;2024-02-28T09:15:55;27.83;;;16.27;;
59336;SDS011;45115;52.002;4.686;2024-02-28T09:18:22;25.17;;;15.52;;
59336;SDS011;45115;52.002;4.686;2024-02-28T09:20:49;25.45;;;15.13;;
59336;SDS011;45115;52.002;4.686;2024-02-28T09:23:16;24.33;;;15.20;;
59336;SDS011;45115;52.002;4.686;2024-02-28T09:25:43;24.60;;;13.93;;
59336;SDS011;45115;52.002;4.686;2024-02-28T09:28:09;26.55;;;15.63;;
59336;SDS011;45115;52.002;4.686;2024-02-28T09:30:40;24.92;;;16.25;;
59336;SDS011;45115;52.002;4.686;2024-02-28T09:33:06;27.73;;;16.05;;
59336;SDS011;45115;52.002;4.686;2024-02-28T09:35:37;22.95;;;15.40;;
59336;SDS011;45115;52.002;4.686;2024-02-28T09:38:03;23.55;;;14.68;;
59336;SDS011;45115;52.002;4.686;2024-02-28T09:40:30;26.02;;;15.52;;
59336;SDS011;45115;52.002;4.686;2024-02-28T09:42:59;26.20;;;15.00;;
59336;SDS011;45115;52.002;4.686;2024-02-28T09:45:27;24.52;;;15.00;;
59336;SDS011;45115;52.002;4.686;2024-02-28T09:47:59;26.75;;;15.00;;
59336;SDS011;45115;52.002;4.686;2024-02-28T09:50:26;25.42;;;14.68;;
59336;SDS011;45115;52.002;4.686;2024-02-28T09:52:53;22.48;;;14.32;;
59336;SDS011;45115;52.002;4.686;2024-02-28T09:55:20;24.48;;;15.75;;
59336;SDS011;45115;52.002;4.686;2024-02-28T09:57:47;26.25;;;14.52;;
59336;SDS011;45115;52.002;4.686;2024-02-28T10:00:15;27.50;;;15.80;;
59336;SDS011;45115;52.002;4.686;2024-02-28T10:02:45;26.40;;;15.45;;
59336;SDS011;45115;52.002;4.686;2024-02-28T10:05:15;25.80;;;15.00;;
59336;SDS011;45115;52.002;4.686;2024-02-28T10:07:44;22.98;;;14.10;;
59336;SDS011;45115;52.002;4.686;2024-02-28T10:10:11;27.77;;;14.18;;
59336;SDS011;45115;52.002;4.686;2024-02-28T10:12:40;22.98;;;13.68;;
59336;SDS011;45115;52.002;4.686;2024-02-28T10:15:07;22.33;;;13.55;;
59336;SDS011;45115;52.002;4.686;2024-02-28T10:17:35;22.27;;;13.13;;
59336;SDS011;45115;52.002;4.686;2024-02-28T10:20:02;25.20;;;13.75;;
59336;SDS011;45115;52.002;4.686;2024-02-28T10:22:35;23.48;;;13.85;;
59336;SDS011;45115;52.002;4.686;2024-02-28T10:25:01;20.80;;;13.35;;
59336;SDS011;45115;52.002;4.686;2024-02-28T10:27:31;22.83;;;13.55;;
59336;SDS011;45115;52.002;4.686;2024-02-28T10:29:58;23.38;;;13.57;;
59336;SDS011;45115;52.002;4.686;2024-02-28T10:32:25;23.90;;;14.60;;
59336;SDS011;45115;52.002;4.686;2024-02-28T10:34:51;26.75;;;14.55;;
59336;SDS011;45115;52.002;4.686;2024-02-28T10:37:19;25.45;;;14.35;;
59336;SDS011;45115;52.002;4.686;2024-02-28T10:39:48;24.23;;;14.00;;
59336;SDS011;45115;52.002;4.686;2024-02-28T10:42:17;23.17;;;14.15;;
59336;SDS011;45115;52.002;4.686;2024-02-28T10:44:44;22.15;;;13.35;;
59336;SDS011;45115;52.002;4.686;2024-02-28T10:47:10;22.83;;;13.70;;
59336;SDS011;45115;52.002;4.686;2024-02-28T10:49:38;26.75;;;14.50;;
59336;SDS011;45115;52.002;4.686;2024-02-28T10:52:05;23.90;;;13.27;;
59336;SDS011;45115;52.002;4.686;2024-02-28T10:54:35;20.58;;;12.65;;
59336;SDS011;45115;52.002;4.686;2024-02-28T10:57:08;18.15;;;11.43;;
59336;SDS011;45115;52.002;4.686;2024-02-28T10:59:38;18.65;;;11.43;;
59336;SDS011;45115;52.002;4.686;2024-02-28T11:02:06;19.05;;;11.15;;
59336;SDS011;45115;52.002;4.686;2024-02-28T11:04:33;19.20;;;11.25;;
59336;SDS011;45115;52.002;4.686;2024-02-28T11:07:00;18.02;;;10.55;;
59336;SDS011;45115;52.002;4.686;2024-02-28T11:09:28;19.98;;;10.07;;
59336;SDS011;45115;52.002;4.686;2024-02-28T11:11:57;17.05;;;10.35;;
59336;SDS011;45115;52.002;4.686;2024-02-28T11:14:25;20.67;;;10.82;;
59336;SDS011;45115;52.002;4.686;2024-02-28T11:16:59;16.55;;;10.23;;
59336;SDS011;45115;52.002;4.686;2024-02-28T11:19:28;20.65;;;11.45;;
59336;SDS011;45115;52.002;4.686;2024-02-28T11:21:55;19.38;;;11.35;;
59336;SDS011;45115;52.002;4.686;2024-02-28T11:24:22;18.40;;;10.77;;
59336;SDS011;45115;52.002;4.686;2024-02-28T11:26:50;17.90;;;11.88;;
59336;SDS011;45115;52.002;4.686;2024-02-28T11:29:22;18.38;;;10.52;;
59336;SDS011;45115;52.002;4.686;2024-02-28T11:31:51;21.67;;;11.20;;
59336;SDS011;45115;52.002;4.686;2024-02-28T11:34:18;19.02;;;11.15;;
59336;SDS011;45115;52.002;4.686;2024-02-28T11:36:46;19.02;;;10.52;;
59336;SDS011;45115;52.002;4.686;2024-02-28T11:39:13;19.33;;;11.10;;
59336;SDS011;45115;52.002;4.686;2024-02-28T11:41:40;18.77;;;11.05;;
59336;SDS011;45115;52.002;4.686;2024-02-28T11:44:07;22.73;;;11.95;;
59336;SDS011;45115;52.002;4.686;2024-02-28T11:46:33;18.90;;;10.68;;
59336;SDS011;45115;52.002;4.686;2024-02-28T11:49:02;20.42;;;11.52;;
59336;SDS011;45115;52.002;4.686;2024-02-28T11:51:30;23.75;;;12.40;;
59336;SDS011;45115;52.002;4.686;2024-02-28T11:53:57;25.92;;;13.40;;
59336;SDS011;45115;52.002;4.686;2024-02-28T11:56:27;19.90;;;11.82;;
59336;SDS011;45115;52.002;4.686;2024-02-28T11:58:54;21.77;;;12.88;;
59336;SDS011;45115;52.002;4.686;2024-02-28T12:01:32;23.73;;;13.50;;
59336;SDS011;45115;52.002;4.686;2024-02-28T12:04:04;22.77;;;12.90;;
59336;SDS011;45115;52.002;4.686;2024-02-28T12:06:31;23.08;;;14.63;;
59336;SDS011;45115;52.002;4.686;2024-02-28T12:08:58;25.25;;;14.18;;
59336;SDS011;45115;52.002;4.686;2024-02-28T12:11:25;24.75;;;13.82;;
59336;SDS011;45115;52.002;4.686;2024-02-28T12:13:53;27.02;;;14.65;;
59336;SDS011;45115;52.002;4.686;2024-02-28T12:16:22;25.90;;;15.20;;
59336;SDS011;45115;52.002;4.686;2024-02-28T12:18:49;25.48;;;14.98;;
59336;SDS011;45115;52.002;4.686;2024-02-28T12:21:17;27.20;;;15.73;;
59336;SDS011;45115;52.002;4.686;2024-02-28T12:23:43;27.58;;;16.25;;
59336;SDS011;45115;52.002;4.686;2024-02-28T12:26:10;28.58;;;15.98;;
59336;SDS011;45115;52.002;4.686;2024-02-28T12:28:37;27.73;;;16.10;;
59336;SDS011;45115;52.002;4.686;2024-02-28T12:31:04;28.98;;;16.58;;
59336;SDS011;45115;52.002;4.686;2024-02-28T12:33:34;30.55;;;17.30;;
59336;SDS011;45115;52.002;4.686;2024-02-28T12:36:00;31.02;;;17.77;;
59336;SDS011;45115;52.002;4.686;2024-02-28T12:38:29;31.63;;;18.17;;
59336;SDS011;45115;52.002;4.686;2024-02-28T12:40:56;33.30;;;19.38;;
59336;SDS011;45115;52.002;4.686;2024-02-28T12:43:23;32.70;;;19.40;;
59336;SDS011;45115;52.002;4.686;2024-02-28T12:45:51;32.70;;;18.00;;
59336;SDS011;45115;52.002;4.686;2024-02-28T12:48:17;30.40;;;16.20;;
59336;SDS011;45115;52.002;4.686;2024-02-28T12:50:44;31.70;;;18.10;;
59336;SDS011;45115;52.002;4.686;2024-02-28T12:53:10;34.05;;;16.08;;
59336;SDS011;45115;52.002;4.686;2024-02-28T12:55:38;31.23;;;15.98;;
59336;SDS011;45115;52.002;4.686;2024-02-28T12:58:05;29.38;;;15.20;;
59336;SDS011;45115;52.002;4.686;2024-02-28T13:00:32;26.75;;;14.45;;
59336;SDS011;45115;52.002;4.686;2024-02-28T13:02:58;28.83;;;14.93;;
59336;SDS011;45115;52.002;4.686;2024-02-28T13:05:25;26.58;;;16.25;;
59336;SDS011;45115;52.002;4.686;2024-02-28T13:07:52;31.48;;;15.70;;
59336;SDS011;45115;52.002;4.686;2024-02-28T13:10:18;29.90;;;16.15;;
59336;SDS011;45115;52.002;4.686;2024-02-28T13:12:48;29.23;;;16.42;;
59336;SDS011;45115;52.002;4.686;2024-02-28T13:15:15;30.15;;;17.20;;
59336;SDS011;45115;52.002;4.686;2024-02-28T13:17:42;27.55;;;16.85;;
59336;SDS011;45115;52.002;4.686;2024-02-28T13:20:09;32.25;;;17.08;;
59336;SDS011;45115;52.002;4.686;2024-02-28T13:22:36;28.92;;;16.50;;
59336;SDS011;45115;52.002;4.686;2024-02-28T13:25:03;33.28;;;17.63;;
59336;SDS011;45115;52.002;4.686;2024-02-28T13:27:30;34.42;;;17.77;;
59336;SDS011;45115;52.002;4.686;2024-02-28T13:29:58;35.60;;;18.50;;
59336;SDS011;45115;52.002;4.686;2024-02-28T13:32:25;35.13;;;18.42;;
59336;SDS011;45115;52.002;4.686;2024-02-28T13:34:51;31.42;;;17.13;;
59336;SDS011;45115;52.002;4.686;2024-02-28T13:37:18;31.45;;;18.15;;
59336;SDS011;45115;52.002;4.686;2024-02-28T13:39:45;30.58;;;17.40;;
59336;SDS011;45115;52.002;4.686;2024-02-28T13:42:12;32.17;;;17.45;;
59336;SDS011;45115;52.002;4.686;2024-02-28T13:44:39;33.10;;;17.98;;
59336;SDS011;45115;52.002;4.686;2024-02-28T13:47:07;32.45;;;17.33;;
59336;SDS011;45115;52.002;4.686;2024-02-28T13:49:34;35.15;;;17.65;;
59336;SDS011;45115;52.002;4.686;2024-02-28T13:52:01;30.88;;;17.45;;
59336;SDS011;45115;52.002;4.686;2024-02-28T13:54:27;30.58;;;16.42;;
59336;SDS011;45115;52.002;4.686;2024-02-28T13:56:55;30.05;;;15.95;;
59336;SDS011;45115;52.002;4.686;2024-02-28T13:59:21;28.25;;;14.60;;
59336;SDS011;45115;52.002;4.686;2024-02-28T14:01:48;29.05;;;14.73;;
59336;SDS011;45115;52.002;4.686;2024-02-28T14:04:16;28.17;;;14.95;;
59336;SDS011;45115;52.002;4.686;2024-02-28T14:06:44;25.38;;;13.88;;
59336;SDS011;45115;52.002;4.686;2024-02-28T14:09:10;24.58;;;13.50;;
59336;SDS011;45115;52.002;4.686;2024-02-28T14:11:37;23.85;;;12.18;;
59336;SDS011;45115;52.002;4.686;2024-02-28T14:14:04;23.38;;;13.02;;
59336;SDS011;45115;52.002;4.686;2024-02-28T14:16:31;23.77;;;12.73;;
59336;SDS011;45115;52.002;4.686;2024-02-28T14:18:58;22.67;;;13.20;;
59336;SDS011;45115;52.002;4.686;2024-02-28T14:21:25;25.45;;;13.30;;
59336;SDS011;45115;52.002;4.686;2024-02-28T14:23:52;24.45;;;14.02;;
59336;SDS011;45115;52.002;4.686;2024-02-28T14:26:19;25.90;;;14.52;;
59336;SDS011;45115;52.002;4.686;2024-02-28T14:28:48;27.80;;;15.95;;
59336;SDS011;45115;52.002;4.686;2024-02-28T14:31:15;24.75;;;13.65;;
59336;SDS011;45115;52.002;4.686;2024-02-28T14:33:42;28.27;;;15.40;;
59336;SDS011;45115;52.002;4.686;2024-02-28T14:36:08;29.42;;;16.45;;
59336;SDS011;45115;52.002;4.686;2024-02-28T14:38:37;28.77;;;15.93;;
59336;SDS011;45115;52.002;4.686;2024-02-28T14:41:03;28.55;;;15.48;;
59336;SDS011;45115;52.002;4.686;2024-02-28T14:43:31;29.15;;;16.02;;
59336;SDS011;45115;52.002;4.686;2024-02-28T14:45:57;26.58;;;14.45;;
59336;SDS011;45115;52.002;4.686;2024-02-28T14:48:24;27.20;;;13.90;;
59336;SDS011;45115;52.002;4.686;2024-02-28T14:50:51;24.95;;;14.75;;
59336;SDS011;45115;52.002;4.686;2024-02-28T14:53:18;24.88;;;14.13;;
59336;SDS011;45115;52.002;4.686;2024-02-28T14:55:47;24.13;;;13.38;;
59336;SDS011;45115;52.002;4.686;2024-02-28T14:58:14;24.15;;;12.80;;
59336;SDS011;45115;52.002;4.686;2024-02-28T15:00:41;23.38;;;13.38;;
59336;SDS011;45115;52.002;4.686;2024-02-28T15:03:12;23.48;;;12.93;;
59336;SDS011;45115;52.002;4.686;2024-02-28T15:05:39;22.00;;;12.30;;
59336;SDS011;45115;52.002;4.686;2024-02-28T15:08:08;25.70;;;13.15;;
59336;SDS011;45115;52.002;4.686;2024-02-28T15:10:35;21.35;;;12.07;;
59336;SDS011;45115;52.002;4.686;2024-02-28T15:13:03;20.92;;;11.10;;
59336;SDS011;45115;52.002;4.686;2024-02-28T15:15:33;21.75;;;10.93;;
59336;SDS011;45115;52.002;4.686;2024-02-28T15:17:59;20.52;;;10.27;;
59336;SDS011;45115;52.002;4.686;2024-02-28T15:20:26;17.25;;;9.60;;
59336;SDS011;45115;52.002;4.686;2024-02-28T15:22:53;21.10;;;10.45;;
59336;SDS011;45115;52.002;4.686;2024-02-28T15:25:20;22.35;;;10.30;;
59336;SDS011;45115;52.002;4.686;2024-02-28T15:27:47;21.85;;;10.88;;
59336;SDS011;45115;52.002;4.686;2024-02-28T15:30:15;18.70;;;11.00;;
59336;SDS011;45115;52.002;4.686;2024-02-28T15:32:41;21.02;;;10.10;;
59336;SDS011;45115;52.002;4.686;2024-02-28T15:35:08;18.92;;;8.88;;
59336;SDS011;45115;52.002;4.686;2024-02-28T15:37:36;20.13;;;9.63;;
59336;SDS011;45115;52.002;4.686;2024-02-28T15:40:04;18.55;;;9.55;;
59336;SDS011;45115;52.002;4.686;2024-02-28T15:42:31;20.48;;;10.40;;
59336;SDS011;45115;52.002;4.686;2024-02-28T15:44:58;19.95;;;10.25;;
59336;SDS011;45115;52.002;4.686;2024-02-28T15:47:28;20.20;;;10.45;;
59336;SDS011;45115;52.002;4.686;2024-02-28T15:49:55;19.73;;;10.55;;
59336;SDS011;45115;52.002;4.686;2024-02-28T15:52:22;18.52;;;9.50;;
59336;SDS011;45115;52.002;4.686;2024-02-28T15:54:49;20.42;;;9.93;;
59336;SDS011;45115;52.002;4.686;2024-02-28T15:57:16;19.48;;;9.43;;
59336;SDS011;45115;52.002;4.686;2024-02-28T15:59:42;18.38;;;10.00;;
59336;SDS011;45115;52.002;4.686;2024-02-28T16:02:09;18.25;;;9.45;;
59336;SDS011;45115;52.002;4.686;2024-02-28T16:04:38;20.98;;;10.18;;
59336;SDS011;45115;52.002;4.686;2024-02-28T16:07:05;17.58;;;9.88;;
59336;SDS011;45115;52.002;4.686;2024-02-28T16:09:33;16.60;;;9.57;;
59336;SDS011;45115;52.002;4.686;2024-02-28T16:11:59;18.35;;;9.00;;
59336;SDS011;45115;52.002;4.686;2024-02-28T16:14:27;19.17;;;9.82;;
59336;SDS011;45115;52.002;4.686;2024-02-28T16:16:54;19.30;;;10.65;;
59336;SDS011;45115;52.002;4.686;2024-02-28T16:19:21;20.55;;;10.57;;
59336;SDS011;45115;52.002;4.686;2024-02-28T16:21:49;22.13;;;10.85;;
59336;SDS011;45115;52.002;4.686;2024-02-28T16:24:17;20.25;;;10.82;;
59336;SDS011;45115;52.002;4.686;2024-02-28T16:26:43;21.05;;;10.77;;
59336;SDS011;45115;52.002;4.686;2024-02-28T16:29:10;22.55;;;12.18;;
59336;SDS011;45115;52.002;4.686;2024-02-28T16:31:37;21.17;;;11.60;;
59336;SDS011;45115;52.002;4.686;2024-02-28T16:34:03;21.70;;;10.77;;
59336;SDS011;45115;52.002;4.686;2024-02-28T16:36:30;22.08;;;11.23;;
59336;SDS011;45115;52.002;4.686;2024-02-28T16:38:58;23.73;;;11.70;;
59336;SDS011;45115;52.002;4.686;2024-02-28T16:41:25;20.15;;;11.35;;
59336;SDS011;45115;52.002;4.686;2024-02-28T16:43:51;20.98;;;11.25;;
59336;SDS011;45115;52.002;4.686;2024-02-28T16:46:20;18.60;;;10.48;;
59336;SDS011;45115;52.002;4.686;2024-02-28T16:48:46;23.50;;;11.15;;
59336;SDS011;45115;52.002;4.686;2024-02-28T16:51:13;20.65;;;11.05;;
59336;SDS011;45115;52.002;4.686;2024-02-28T16:53:40;21.02;;;11.45;;
59336;SDS011;45115;52.002;4.686;2024-02-28T16:56:08;22.40;;;11.18;;
59336;SDS011;45115;52.002;4.686;2024-02-28T16:58:35;22.08;;;12.00;;
59336;SDS011;45115;52.002;4.686;2024-02-28T17:01:05;21.05;;;12.50;;
59336;SDS011;45115;52.002;4.686;2024-02-28T17:03:32;24.40;;;11.80;;
59336;SDS011;45115;52.002;4.686;2024-02-28T17:05:59;21.38;;;11.20;;
59336;SDS011;45115;52.002;4.686;2024-02-28T17:08:25;27.20;;;13.57;;
59336;SDS011;45115;52.002;4.686;2024-02-28T17:10:52;25.73;;;13.63;;
59336;SDS011;45115;52.002;4.686;2024-02-28T17:13:20;32.60;;;14.77;;
59336;SDS011;45115;52.002;4.686;2024-02-28T17:15:47;27.00;;;13.85;;
59336;SDS011;45115;52.002;4.686;2024-02-28T17:18:19;27.92;;;15.25;;
59336;SDS011;45115;52.002;4.686;2024-02-28T17:20:46;25.85;;;14.50;;
59336;SDS011;45115;52.002;4.686;2024-02-28T17:23:13;25.85;;;14.43;;
59336;SDS011;45115;52.002;4.686;2024-02-28T17:25:40;25.17;;;13.77;;
59336;SDS011;45115;52.002;4.686;2024-02-28T17:28:06;25.13;;;13.77;;
59336;SDS011;45115;52.002;4.686;2024-02-28T17:30:34;30.00;;;15.25;;
59336;SDS011;45115;52.002;4.686;2024-02-28T17:33:01;27.15;;;15.10;;
59336;SDS011;45115;52.002;4.686;2024-02-28T17:35:27;26.85;;;14.68;;
59336;SDS011;45115;52.002;4.686;2024-02-28T17:37:54;26.67;;;13.00;;
59336;SDS011;45115;52.002;4.686;2024-02-28T17:40:21;29.90;;;15.95;;
59336;SDS011;45115;52.002;4.686;2024-02-28T17:42:49;26.08;;;14.40;;
59336;SDS011;45115;52.002;4.686;2024-02-28T17:45:15;28.52;;;13.85;;
59336;SDS011;45115;52.002;4.686;2024-02-28T17:47:46;25.77;;;13.90;;
59336;SDS011;45115;52.002;4.686;2024-02-28T17:50:13;25.33;;;13.98;;
59336;SDS011;45115;52.002;4.686;2024-02-28T17:52:40;26.63;;;14.65;;
59336;SDS011;45115;52.002;4.686;2024-02-28T17:55:07;27.70;;;13.43;;
59336;SDS011;45115;52.002;4.686;2024-02-28T17:57:35;23.33;;;13.05;;
59336;SDS011;45115;52.002;4.686;2024-02-28T18:00:02;26.50;;;13.85;;
59336;SDS011;45115;52.002;4.686;2024-02-28T18:02:32;26.00;;;12.93;;
59336;SDS011;45115;52.002;4.686;2024-02-28T18:05:00;26.77;;;13.27;;
59336;SDS011;45115;52.002;4.686;2024-02-28T18:07:26;28.48;;;13.65;;
59336;SDS011;45115;52.002;4.686;2024-02-28T18:09:53;27.02;;;13.52;;
59336;SDS011;45115;52.002;4.686;2024-02-28T18:12:20;25.25;;;13.23;;
59336;SDS011;45115;52.002;4.686;2024-02-28T18:14:46;23.65;;;13.73;;
59336;SDS011;45115;52.002;4.686;2024-02-28T18:17:13;23.30;;;12.70;;
59336;SDS011;45115;52.002;4.686;2024-02-28T18:19:39;23.65;;;12.80;;
59336;SDS011;45115;52.002;4.686;2024-02-28T18:22:07;23.60;;;11.70;;
59336;SDS011;45115;52.002;4.686;2024-02-28T18:24:34;23.35;;;12.55;;
59336;SDS011;45115;52.002;4.686;2024-02-28T18:27:01;20.38;;;12.32;;
59336;SDS011;45115;52.002;4.686;2024-02-28T18:29:28;22.85;;;12.07;;
59336;SDS011;45115;52.002;4.686;2024-02-28T18:31:55;21.33;;;11.00;;
59336;SDS011;45115;52.002;4.686;2024-02-28T18:34:21;21.00;;;11.55;;
59336;SDS011;45115;52.002;4.686;2024-02-28T18:36:48;22.95;;;11.70;;
59336;SDS011;45115;52.002;4.686;2024-02-28T18:39:16;20.17;;;11.85;;
59336;SDS011;45115;52.002;4.686;2024-02-28T18:41:43;22.38;;;12.27;;
59336;SDS011;45115;52.002;4.686;2024-02-28T18:44:13;21.90;;;11.60;;
59336;SDS011;45115;52.002;4.686;2024-02-28T18:46:39;22.45;;;12.50;;
59336;SDS011;45115;52.002;4.686;2024-02-28T18:49:06;22.55;;;12.55;;
59336;SDS011;45115;52.002;4.686;2024-02-28T18:51:33;24.63;;;13.48;;
59336;SDS011;45115;52.002;4.686;2024-02-28T18:54:00;26.05;;;12.55;;
59336;SDS011;45115;52.002;4.686;2024-02-28T18:56:28;23.60;;;11.82;;
59336;SDS011;45115;52.002;4.686;2024-02-28T18:58:56;24.50;;;11.20;;
59336;SDS011;45115;52.002;4.686;2024-02-28T19:01:23;19.98;;;11.73;;
59336;SDS011;45115;52.002;4.686;2024-02-28T19:03:50;20.00;;;10.88;;
59336;SDS011;45115;52.002;4.686;2024-02-28T19:06:18;20.38;;;10.23;;
59336;SDS011;45115;52.002;4.686;2024-02-28T19:08:46;23.92;;;11.65;;
59336;SDS011;45115;52.002;4.686;2024-02-28T19:11:12;21.90;;;11.50;;
59336;SDS011;45115;52.002;4.686;2024-02-28T19:13:40;21.02;;;10.80;;
59336;SDS011;45115;52.002;4.686;2024-02-28T19:16:07;18.00;;;9.77;;
59336;SDS011;45115;52.002;4.686;2024-02-28T19:18:35;19.83;;;9.90;;
59336;SDS011;45115;52.002;4.686;2024-02-28T19:21:03;19.13;;;10.15;;
59336;SDS011;45115;52.002;4.686;2024-02-28T19:23:31;19.27;;;9.60;;
59336;SDS011;45115;52.002;4.686;2024-02-28T19:25:58;17.70;;;8.80;;
59336;SDS011;45115;52.002;4.686;2024-02-28T19:28:24;18.13;;;9.48;;
59336;SDS011;45115;52.002;4.686;2024-02-28T19:30:53;15.77;;;8.80;;
59336;SDS011;45115;52.002;4.686;2024-02-28T19:33:22;16.77;;;8.45;;
59336;SDS011;45115;52.002;4.686;2024-02-28T19:35:48;16.33;;;8.63;;
59336;SDS011;45115;52.002;4.686;2024-02-28T19:38:15;17.35;;;8.90;;
59336;SDS011;45115;52.002;4.686;2024-02-28T19:40:42;14.07;;;7.57;;
59336;SDS011;45115;52.002;4.686;2024-02-28T19:43:08;15.48;;;8.30;;
59336;SDS011;45115;52.002;4.686;2024-02-28T19:45:35;15.60;;;7.70;;
59336;SDS011;45115;52.002;4.686;2024-02-28T19:48:03;16.50;;;7.80;;
59336;SDS011;45115;52.002;4.686;2024-02-28T19:50:31;14.43;;;7.53;;
59336;SDS011;45115;52.002;4.686;2024-02-28T19:52:57;15.38;;;8.30;;
59336;SDS011;45115;52.002;4.686;2024-02-28T19:55:26;14.93;;;7.72;;
59336;SDS011;45115;52.002;4.686;2024-02-28T19:57:53;14.20;;;7.75;;
59336;SDS011;45115;52.002;4.686;2024-02-28T20:00:19;14.40;;;8.00;;
59336;SDS011;45115;52.002;4.686;2024-02-28T20:02:46;12.52;;;7.38;;
59336;SDS011;45115;52.002;4.686;2024-02-28T20:05:14;14.57;;;7.63;;
59336;SDS011;45115;52.002;4.686;2024-02-28T20:07:41;15.23;;;7.72;;
59336;SDS011;45115;52.002;4.686;2024-02-28T20:10:08;15.05;;;7.47;;
59336;SDS011;45115;52.002;4.686;2024-02-28T20:12:35;14.27;;;7.45;;
59336;SDS011;45115;52.002;4.686;2024-02-28T20:15:02;14.40;;;7.55;;
59336;SDS011;45115;52.002;4.686;2024-02-28T20:17:30;13.80;;;7.00;;
59336;SDS011;45115;52.002;4.686;2024-02-28T20:19:57;18.17;;;7.88;;
59336;SDS011;45115;52.002;4.686;2024-02-28T20:22:25;15.18;;;7.45;;
59336;SDS011;45115;52.002;4.686;2024-02-28T20:24:52;13.98;;;7.25;;
59336;SDS011;45115;52.002;4.686;2024-02-28T20:27:19;14.73;;;7.55;;
59336;SDS011;45115;52.002;4.686;2024-02-28T20:29:45;14.05;;;7.60;;
59336;SDS011;45115;52.002;4.686;2024-02-28T20:32:12;14.10;;;6.90;;
59336;SDS011;45115;52.002;4.686;2024-02-28T20:34:39;14.32;;;6.80;;
59336;SDS011;45115;52.002;4.686;2024-02-28T20:37:05;13.10;;;7.28;;
59336;SDS011;45115;52.002;4.686;2024-02-28T20:39:36;17.63;;;7.57;;
59336;SDS011;45115;52.002;4.686;2024-02-28T20:42:04;14.45;;;6.80;;
59336;SDS011;45115;52.002;4.686;2024-02-28T20:44:32;14.10;;;7.22;;
59336;SDS011;45115;52.002;4.686;2024-02-28T20:46:58;13.60;;;7.15;;
59336;SDS011;45115;52.002;4.686;2024-02-28T20:49:25;13.57;;;7.32;;
59336;SDS011;45115;52.002;4.686;2024-02-28T20:51:52;13.23;;;6.55;;
59336;SDS011;45115;52.002;4.686;2024-02-28T20:54:22;13.75;;;6.82;;
59336;SDS011;45115;52.002;4.686;2024-02-28T20:56:50;13.93;;;6.50;;
59336;SDS011;45115;52.002;4.686;2024-02-28T20:59:16;15.05;;;7.30;;
59336;SDS011;45115;52.002;4.686;2024-02-28T21:01:44;15.60;;;7.90;;
59336;SDS011;45115;52.002;4.686;2024-02-28T21:04:11;14.60;;;7.65;;
59336;SDS011;45115;52.002;4.686;2024-02-28T21:06:40;14.55;;;7.13;;
59336;SDS011;45115;52.002;4.686;2024-02-28T21:09:06;15.65;;;7.97;;
59336;SDS011;45115;52.002;4.686;2024-02-28T21:11:33;16.08;;;7.88;;
59336;SDS011;45115;52.002;4.686;2024-02-28T21:14:01;15.73;;;8.65;;
59336;SDS011;45115;52.002;4.686;2024-02-28T21:16:29;20.33;;;8.15;;
59336;SDS011;45115;52.002;4.686;2024-02-28T21:18:55;15.68;;;8.07;;
59336;SDS011;45115;52.002;4.686;2024-02-28T21:21:22;14.45;;;7.55;;
59336;SDS011;45115;52.002;4.686;2024-02-28T21:23:51;15.55;;;8.10;;
59336;SDS011;45115;52.002;4.686;2024-02-28T21:26:18;15.18;;;7.85;;
59336;SDS011;45115;52.002;4.686;2024-02-28T21:28:44;16.85;;;8.45;;
59336;SDS011;45115;52.002;4.686;2024-02-28T21:31:15;17.38;;;9.23;;
59336;SDS011;45115;52.002;4.686;2024-02-28T21:33:42;18.13;;;8.93;;
59336;SDS011;45115;52.002;4.686;2024-02-28T21:36:09;14.93;;;7.60;;
59336;SDS011;45115;52.002;4.686;2024-02-28T21:38:36;16.55;;;8.48;;
59336;SDS011;45115;52.002;4.686;2024-02-28T21:41:03;16.75;;;8.45;;
59336;SDS011;45115;52.002;4.686;2024-02-28T21:43:30;15.95;;;7.80;;
59336;SDS011;45115;52.002;4.686;2024-02-28T21:45:57;16.73;;;8.82;;
59336;SDS011;45115;52.002;4.686;2024-02-28T21:48:25;16.73;;;7.85;;
59336;SDS011;45115;52.002;4.686;2024-02-28T21:50:52;16.23;;;8.50;;
59336;SDS011;45115;52.002;4.686;2024-02-28T21:53:18;17.00;;;8.80;;
59336;SDS011;45115;52.002;4.686;2024-02-28T21:55:48;16.70;;;8.57;;
59336;SDS011;45115;52.002;4.686;2024-02-28T21:58:15;16.10;;;8.65;;
59336;SDS011;45115;52.002;4.686;2024-02-28T22:00:43;17.17;;;9.20;;
59336;SDS011;45115;52.002;4.686;2024-02-28T22:03:10;18.25;;;9.98;;
59336;SDS011;45115;52.002;4.686;2024-02-28T22:05:38;18.55;;;9.63;;
59336;SDS011;45115;52.002;4.686;2024-02-28T22:08:06;18.58;;;9.35;;
59336;SDS011;45115;52.002;4.686;2024-02-28T22:10:33;19.75;;;10.00;;